Lähistön asemien METAR-raportit

 

EFJY - Jyvaskyla (mil/C, Finland
Etäisyys Sääasemalta: E 40km
Päivitetty: 22/10/2019 15:50
Pilvistä
Pilvistä
 Tuulen suunta Lo
Tuuli: Lo 24 km/h
Lämpötila: 7°C
Tuulen purevuus: 3°C
Kastepiste: 3°C
Ilmankosteus: 76%
Ilmanpaine: 999 hPa
Pilvisyys: Pilvistä
Näkyvyys: 10 km
Pilvisyystiedot: Pilvistä 640 m
2019/10/22 15:50 EFJY 221550Z AUTO 23013KT 200V260 9999 OVC021 07/03 Q0999
EFKU - Kuopio (mil/Civ), Finland
Etäisyys Sääasemalta: IKo 106km
Päivitetty: 22/10/2019 15:50
Enimmäkseen pilvistä
Enimmäkseen pilvistä
 Tuulen suunta Lo
Tuuli: Lo 26 km/h
Lämpötila: 8°C
Tuulen purevuus: 4°C
Kastepiste: 4°C
Ilmankosteus: 76%
Ilmanpaine: 997 hPa
Pilvisyys: Enimmäkseen pilvistä
Näkyvyys: 10 km
Pilvisyystiedot: Enimmäkseen pilvistä 853 m
2019/10/22 15:50 EFKU 221550Z AUTO 23014KT 9999 BKN028 08/04 Q0997
EFHA - Halli (fin-Afb), Finland
Etäisyys Sääasemalta: ELo 113km
Päivitetty: 22/10/2019 15:50
Pilvistä
Pilvistä
 Tuulen suunta Lo
Tuuli: Lo 26 km/h, Puuskatuuli: 44 km/h
Lämpötila: 8°C
Tuulen purevuus: 4°C
Kastepiste: 4°C
Ilmankosteus: 76%
Ilmanpaine: 1001 hPa
Pilvisyys: Pilvistä
Näkyvyys: 10 km
Pilvisyystiedot: Pilvistä 610 m
2019/10/22 15:50 EFHA 221550Z AUTO 23014G24KT 190V260 9999 OVC020 08/04 Q1001
 
EFMI - Mikkeli, Finland
Etäisyys Sääasemalta: EKa 140km
Päivitetty: 22/10/2019 15:50
Selkeätä
Selkeätä
 Tuulen suunta Lo
Tuuli: Lo 28 km/h, Puuskatuuli: 46 km/h
Lämpötila: 9°C
Tuulen purevuus: 6°C
Kastepiste: 5°C
Ilmankosteus: 76%
Ilmanpaine: 1002 hPa
Yhteenveto: Selkeätä
Näkyvyys: Enemmän Kuin 10 km
2019/10/22 15:50 EFMI 221550Z AUTO 23015G25KT 200V270 CAVOK 09/05 Q1002
EFSI - Seinajoki-Ilmajo, Finland
Etäisyys Sääasemalta: L 150km
Päivitetty: 22/10/2019 15:50
Enimmäkseen pilvistä
Enimmäkseen pilvistä
 Tuulen suunta LLo
Tuuli: LLo 19 km/h, Puuskatuuli: 41 km/h
Lämpötila: 7°C
Tuulen purevuus: 4°C
Kastepiste: 4°C
Ilmankosteus: 81%
Ilmanpaine: 999 hPa
Pilvisyys: Enimmäkseen pilvistä
Näkyvyys: 10 km
Pilvisyystiedot: Puolipilvistä 549 m
Enimmäkseen pilvistä 640 m
2019/10/22 15:50 EFSI 221550Z AUTO 24010G22KT 170V320 9999 SCT018 BKN021 07/04 Q0999
EFKK - Kruunupyy, Finland
Etäisyys Sääasemalta: Lu 170km
Päivitetty: 22/10/2019 15:50
Enimmäkseen pilvistä
Enimmäkseen pilvistä
 Tuulen suunta ELo
Tuuli: ELo 31 km/h, Puuskatuuli: 50 km/h
Lämpötila: 7°C
Tuulen purevuus: 3°C
Kastepiste: 4°C
Ilmankosteus: 81%
Ilmanpaine: 994 hPa
Pilvisyys: Enimmäkseen pilvistä
Näkyvyys: 10 km
Pilvisyystiedot: Enimmäkseen pilvistä 457 m
2019/10/22 15:50 EFKK 221550Z AUTO 20017G27KT 9999 BKN015 07/04 Q0994
 
EFSA - Savonlinna (aut), Finland
Etäisyys Sääasemalta: IKa 186km
Päivitetty: 22/10/2019 15:50
Enimmäkseen pilvistä
Enimmäkseen pilvistä
 Tuulen suunta ELo
Tuuli: ELo 15 km/h
Lämpötila: 9°C
Tuulen purevuus: 7°C
Kastepiste: 8°C
Ilmankosteus: 94%
Ilmanpaine: 1000 hPa
Pilvisyys: Enimmäkseen pilvistä
Näkyvyys: 10 km
Pilvisyystiedot: Enimmäkseen pilvistä 335 m
Enimmäkseen pilvistä 2743 m
Enimmäkseen pilvistä 3505 m
2019/10/22 15:50 EFSA 221550Z AUTO 20008KT 160V270 9999 BKN011 BKN090 BKN115 09/08 Q1000
EFTP - Tampere/Pirkkala, Finland
Etäisyys Sääasemalta: Lo 187km
Päivitetty: 22/10/2019 15:50
Pilvistä
Pilvistä
 Tuulen suunta Lo
Tuuli: Lo 26 km/h
Lämpötila: 8°C
Tuulen purevuus: 4°C
Kastepiste: 5°C
Ilmankosteus: 82%
Ilmanpaine: 1003 hPa
Pilvisyys: Pilvistä
Näkyvyys: 10 km
Pilvisyystiedot: Joitain Pilviä 549 m
Enimmäkseen pilvistä 640 m
Pilvistä 792 m
2019/10/22 15:50 EFTP 221550Z AUTO 22014KT 9999 FEW018 BKN021 OVC026 08/05 Q1003
EFKI - Kajaani, Finland
Etäisyys Sääasemalta: PKo 192km
Päivitetty: 22/10/2019 15:50
Pilvistä
Pilvistä
 Tuulen suunta Lo
Tuuli: Lo 22 km/h
Lämpötila: 5°C
Tuulen purevuus: 1°C
Kastepiste: 4°C
Ilmankosteus: 93%
Ilmanpaine: 993 hPa
Pilvisyys: Pilvistä
Näkyvyys: 10 km
Pilvisyystiedot: Pilvistä 274 m
2019/10/22 15:50 EFKI 221550Z AUTO 23012KT 190V260 9999 OVC009 05/04 Q0993
 
EFJO - Joensuu, Finland
Etäisyys Sääasemalta: I 196km
Päivitetty: 22/10/2019 15:50
Enimmäkseen pilvistä
Enimmäkseen pilvistä
 Tuulen suunta ELo
Tuuli: ELo 17 km/h
Lämpötila: 9°C
Tuulen purevuus: 7°C
Kastepiste: 7°C
Ilmankosteus: 87%
Ilmanpaine: 998 hPa
Pilvisyys: Enimmäkseen pilvistä
Näkyvyys: 10 km
Pilvisyystiedot: Enimmäkseen pilvistä 488 m
2019/10/22 15:50 EFJO 221550Z AUTO 21009KT 170V270 9999 BKN016 09/07 Q0998